Time;durP1;ratioP1;P1;durP2;ratioP2;P2;SDS_P1;SDS_P2;PMS_P1;PMS_P2;Temp;Humidity;BMP_temperature;BMP_pressure;BME280_temperature;BME280_humidity;BME280_pressure;Samples;Min_cycle;Max_cycle;Signal;HPM_P1;HPM_P2
2024/03/22 00:00:03;;;;;;;4.03;2.77;;;14.00;99.90;;;;;;4991996;28;20642;-48
2024/03/22 00:02:38;;;;;;;3.30;2.83;;;14.00;99.90;;;;;;4998458;28;20450;-48
2024/03/22 00:05:05;;;;;;;2.93;2.50;;;14.00;99.90;;;;;;4996481;28;21014;-47
2024/03/22 00:07:33;;;;;;;4.50;2.90;;;14.00;99.90;;;;;;5003307;28;20484;-47
2024/03/22 00:10:00;;;;;;;3.93;2.87;;;14.00;99.90;;;;;;4990892;28;20434;-47
2024/03/22 00:12:26;;;;;;;4.57;3.73;;;14.00;99.90;;;;;;5004667;28;20599;-48
2024/03/22 00:14:54;;;;;;;4.03;3.07;;;14.00;99.90;;;;;;4991788;28;20993;-47
2024/03/22 00:17:20;;;;;;;5.73;4.23;;;14.00;99.90;;;;;;4999257;28;20929;-47
2024/03/22 00:19:47;;;;;;;3.30;3.00;;;14.00;99.90;;;;;;4990825;28;20450;-47
2024/03/22 00:22:15;;;;;;;4.00;3.13;;;14.00;99.90;;;;;;4991840;28;20520;-47
2024/03/22 00:24:43;;;;;;;4.77;3.07;;;14.00;99.90;;;;;;4999692;28;20430;-47
2024/03/22 00:27:11;;;;;;;3.13;2.83;;;14.00;99.90;;;;;;4995119;28;20931;-47
2024/03/22 00:29:38;;;;;;;3.27;2.60;;;14.00;99.90;;;;;;4990464;28;20551;-47
2024/03/22 00:32:07;;;;;;;4.30;3.10;;;14.00;99.90;;;;;;4995828;28;20478;-47
2024/03/22 00:34:34;;;;;;;4.10;3.13;;;14.00;99.90;;;;;;4992790;28;20527;-47
2024/03/22 00:37:00;;;;;;;3.37;3.00;;;14.00;99.90;;;;;;4991091;28;21002;-47
2024/03/22 00:39:27;;;;;;;3.80;3.23;;;14.00;99.90;;;;;;4991309;28;20514;-47
2024/03/22 00:41:55;;;;;;;3.87;3.00;;;14.00;99.90;;;;;;4995168;28;20529;-48
2024/03/22 00:44:22;;;;;;;4.70;3.20;;;14.00;99.90;;;;;;4996592;28;20438;-48
2024/03/22 00:46:48;;;;;;;2.90;2.40;;;14.00;99.90;;;;;;4991227;28;20804;-47
2024/03/22 00:49:15;;;;;;;3.20;2.67;;;14.00;99.90;;;;;;4989831;28;20473;-48
2024/03/22 00:51:43;;;;;;;5.20;3.10;;;14.00;99.90;;;;;;4990018;28;20578;-48
2024/03/22 00:54:10;;;;;;;4.07;3.07;;;14.00;99.90;;;;;;4997564;28;20475;-48
2024/03/22 00:56:37;;;;;;;2.97;2.43;;;14.00;99.90;;;;;;4991211;28;20954;-47
2024/03/22 00:59:06;;;;;;;2.90;2.47;;;14.00;99.90;;;;;;4990573;28;20596;-47
2024/03/22 01:01:32;;;;;;;3.60;3.00;;;14.00;99.90;;;;;;5001741;28;20888;-47
2024/03/22 01:03:59;;;;;;;3.87;2.67;;;13.90;99.90;;;;;;4996903;28;20525;-47
2024/03/22 01:06:27;;;;;;;2.63;2.30;;;13.90;99.90;;;;;;4998508;28;20484;-47
2024/03/22 01:08:54;;;;;;;4.40;2.83;;;14.00;99.90;;;;;;4990233;28;20885;-47
2024/03/22 01:11:20;;;;;;;4.07;3.17;;;13.90;99.90;;;;;;4998141;28;20554;-47
2024/03/22 01:13:47;;;;;;;3.33;2.97;;;13.90;99.90;;;;;;4998716;28;20544;-47
2024/03/22 01:16:15;;;;;;;3.90;3.20;;;13.90;99.90;;;;;;4990374;28;20476;-47
2024/03/22 01:18:42;;;;;;;3.30;2.40;;;13.90;99.90;;;;;;5004546;28;20981;-48
2024/03/22 01:21:08;;;;;;;4.17;3.10;;;13.90;99.90;;;;;;4994232;28;20441;-47
2024/03/22 01:23:35;;;;;;;3.63;2.80;;;13.90;99.90;;;;;;5001328;28;20933;-47
2024/03/22 01:26:01;;;;;;;3.80;3.00;;;14.00;99.90;;;;;;4996316;28;20532;-47
2024/03/22 01:28:28;;;;;;;3.43;2.63;;;13.90;99.90;;;;;;5001005;28;20516;-47
2024/03/22 01:30:54;;;;;;;2.97;2.60;;;13.90;99.90;;;;;;4990195;28;20501;-47
2024/03/22 01:33:23;;;;;;;3.47;2.77;;;13.90;99.90;;;;;;4995112;28;20441;-48
2024/03/22 01:35:49;;;;;;;3.93;3.30;;;13.90;99.90;;;;;;4997893;28;20834;-47
2024/03/22 01:38:16;;;;;;;3.20;2.63;;;13.90;99.90;;;;;;4988963;28;20462;-47
2024/03/22 01:40:42;;;;;;;3.13;2.83;;;13.90;99.90;;;;;;4996383;28;20445;-47
2024/03/22 01:43:09;;;;;;;3.30;2.97;;;13.90;99.90;;;;;;4989622;28;20958;-47
2024/03/22 01:45:36;;;;;;;4.17;3.13;;;13.90;99.90;;;;;;5002079;28;20576;-48
2024/03/22 01:48:04;;;;;;;3.67;2.70;;;13.90;99.90;;;;;;4998288;28;20543;-47
2024/03/22 01:50:32;;;;;;;3.20;2.90;;;13.90;99.90;;;;;;4996759;28;20448;-47
2024/03/22 01:52:59;;;;;;;2.93;2.53;;;13.90;99.90;;;;;;4997422;28;20885;-47
2024/03/22 01:55:27;;;;;;;3.73;3.00;;;13.90;99.90;;;;;;4997696;28;20438;-47
2024/03/22 01:57:54;;;;;;;3.30;2.47;;;13.90;99.90;;;;;;4990061;28;20455;-47
2024/03/22 02:00:22;;;;;;;2.90;2.47;;;13.90;99.90;;;;;;4999994;28;20965;-48
2024/03/22 02:02:49;;;;;;;3.20;2.83;;;13.90;99.90;;;;;;4992103;28;20443;-47
2024/03/22 02:05:19;;;;;;;5.90;2.87;;;13.90;99.90;;;;;;4973464;28;20458;-48
2024/03/22 02:07:47;;;;;;;2.97;2.50;;;13.90;99.90;;;;;;5003249;28;20428;-47
2024/03/22 02:10:14;;;;;;;3.20;2.90;;;13.90;99.90;;;;;;4989173;28;20476;-47
2024/03/22 02:12:41;;;;;;;3.23;2.47;;;13.90;99.90;;;;;;4993606;28;20479;-47
2024/03/22 02:15:09;;;;;;;3.90;2.50;;;13.90;99.90;;;;;;4992800;28;20500;-50
2024/03/22 02:17:36;;;;;;;3.80;2.77;;;13.90;99.90;;;;;;4989321;28;20432;-48
2024/03/22 02:20:04;;;;;;;3.73;3.00;;;13.90;99.90;;;;;;4995051;28;20532;-47
2024/03/22 02:22:31;;;;;;;4.00;3.27;;;13.90;99.90;;;;;;4991622;28;20932;-47
2024/03/22 02:24:58;;;;;;;3.93;2.87;;;13.90;99.90;;;;;;4989636;28;20924;-47
2024/03/22 02:27:26;;;;;;;3.80;2.70;;;13.90;99.90;;;;;;4992904;28;20445;-47
2024/03/22 02:29:52;;;;;;;2.90;2.50;;;13.90;99.90;;;;;;4989194;28;20872;-47
2024/03/22 02:32:19;;;;;;;3.30;2.50;;;13.90;99.90;;;;;;4990611;28;20515;-46
2024/03/22 02:34:45;;;;;;;5.07;3.97;;;13.90;99.90;;;;;;5004932;28;20427;-47
2024/03/22 02:37:12;;;;;;;4.43;3.23;;;13.90;99.90;;;;;;4989578;28;20433;-48
2024/03/22 02:39:38;;;;;;;4.13;3.73;;;13.90;99.90;;;;;;4999859;28;20570;-47
2024/03/22 02:42:07;;;;;;;3.90;3.27;;;13.90;99.90;;;;;;4997751;28;20452;-47
2024/03/22 02:44:33;;;;;;;3.63;3.33;;;13.90;99.90;;;;;;4998075;28;21040;-48
2024/03/22 02:47:00;;;;;;;3.47;3.10;;;13.90;99.90;;;;;;4997254;28;20942;-48
2024/03/22 02:49:26;;;;;;;4.30;3.67;;;13.90;99.90;;;;;;4998354;28;20455;-48
2024/03/22 02:51:53;;;;;;;3.73;3.30;;;13.90;99.90;;;;;;4996687;28;20539;-47
2024/03/22 02:54:19;;;;;;;3.80;3.10;;;13.90;99.90;;;;;;4993212;28;20448;-47
2024/03/22 02:56:46;;;;;;;6.40;4.07;;;13.90;99.90;;;;;;5000903;28;20953;-47
2024/03/22 02:59:14;;;;;;;4.83;2.90;;;13.90;99.90;;;;;;4992309;28;20465;-47
2024/03/22 03:01:41;;;;;;;3.83;3.43;;;13.90;99.90;;;;;;4997282;28;20995;-47
2024/03/22 03:04:07;;;;;;;3.27;2.97;;;13.90;99.90;;;;;;4999405;28;20429;-48
2024/03/22 03:06:34;;;;;;;5.97;3.50;;;13.90;99.90;;;;;;4994275;28;20452;-47
2024/03/22 03:09:00;;;;;;;3.00;2.33;;;13.90;99.90;;;;;;4991933;28;20446;-48
2024/03/22 03:11:28;;;;;;;3.87;3.20;;;13.80;99.90;;;;;;4995699;28;20548;-47
2024/03/22 03:13:54;;;;;;;4.40;3.03;;;13.90;99.90;;;;;;4994080;28;20458;-47
2024/03/22 03:16:22;;;;;;;4.10;3.50;;;13.80;99.90;;;;;;4993967;28;20486;-47
2024/03/22 03:18:48;;;;;;;4.07;3.37;;;13.90;99.90;;;;;;5001844;28;20471;-47
2024/03/22 03:21:16;;;;;;;6.17;4.63;;;13.90;99.90;;;;;;4992050;28;20570;-47
2024/03/22 03:23:42;;;;;;;3.53;3.07;;;13.80;99.90;;;;;;4994673;28;20446;-47
2024/03/22 03:26:09;;;;;;;6.57;3.50;;;13.90;99.90;;;;;;4997185;28;20429;-47
2024/03/22 03:28:35;;;;;;;4.17;3.23;;;13.80;99.90;;;;;;5002008;28;20866;-48
2024/03/22 03:31:02;;;;;;;4.83;3.23;;;13.80;99.90;;;;;;4998259;28;20430;-47
2024/03/22 03:33:29;;;;;;;5.50;3.73;;;13.80;99.90;;;;;;4995094;28;20807;-48
2024/03/22 03:35:56;;;;;;;3.80;3.40;;;13.80;99.90;;;;;;4992114;28;20529;-47
2024/03/22 03:38:22;;;;;;;3.30;3.00;;;13.80;99.90;;;;;;4990647;28;20452;-48
2024/03/22 03:40:49;;;;;;;4.30;3.77;;;13.80;99.90;;;;;;4997973;28;20437;-47
2024/03/22 03:43:15;;;;;;;4.20;3.53;;;13.80;99.90;;;;;;5000030;28;20764;-47
2024/03/22 03:45:42;;;;;;;4.27;3.87;;;13.80;99.90;;;;;;5001695;28;20447;-47
2024/03/22 03:48:09;;;;;;;4.20;3.20;;;13.80;99.90;;;;;;4995672;28;20547;-47
2024/03/22 03:50:37;;;;;;;7.30;4.03;;;13.80;99.90;;;;;;4973841;28;20436;-47
2024/03/22 03:53:03;;;;;;;4.10;3.67;;;13.80;99.90;;;;;;4993956;28;20520;-47
2024/03/22 03:55:30;;;;;;;6.97;3.63;;;13.80;99.90;;;;;;4992277;28;20895;-47
2024/03/22 03:57:56;;;;;;;4.17;3.43;;;13.80;99.90;;;;;;4991087;28;21062;-48
2024/03/22 04:00:23;;;;;;;4.80;4.27;;;13.80;99.90;;;;;;4998457;28;20447;-47
2024/03/22 04:02:50;;;;;;;4.60;4.07;;;13.80;99.90;;;;;;5004236;28;20428;-47
2024/03/22 04:05:17;;;;;;;4.73;3.93;;;13.80;99.90;;;;;;5002919;28;20863;-46
2024/03/22 04:07:47;;;;;;;4.10;3.70;;;13.80;99.90;;;;;;4978178;28;20521;-48
2024/03/22 04:10:14;;;;;;;4.37;3.97;;;13.80;99.90;;;;;;4991713;28;20525;-48
2024/03/22 04:12:40;;;;;;;6.47;3.53;;;13.80;99.90;;;;;;4993599;28;20842;-47
2024/03/22 04:15:08;;;;;;;4.47;2.80;;;13.80;99.90;;;;;;4991917;28;20422;-47
2024/03/22 04:17:34;;;;;;;3.70;2.73;;;13.80;99.90;;;;;;4993232;28;21070;-47
2024/03/22 04:20:02;;;;;;;4.87;4.10;;;13.80;99.90;;;;;;4991340;28;20432;-48
2024/03/22 04:22:28;;;;;;;5.30;4.00;;;13.80;99.90;;;;;;4991405;28;20426;-47
2024/03/22 04:24:56;;;;;;;5.53;3.93;;;13.80;99.90;;;;;;4998925;28;20957;-47
2024/03/22 04:27:23;;;;;;;4.37;3.53;;;13.80;99.90;;;;;;4992102;28;20464;-47
2024/03/22 04:29:50;;;;;;;5.23;4.23;;;13.80;99.90;;;;;;4996988;28;20815;-47
2024/03/22 04:32:16;;;;;;;5.83;4.97;;;13.80;99.90;;;;;;5008046;28;20490;-47
2024/03/22 04:34:44;;;;;;;6.60;4.40;;;13.80;99.90;;;;;;4991909;28;20935;-47
2024/03/22 04:37:12;;;;;;;5.33;4.80;;;13.80;99.90;;;;;;4990545;28;20446;-47
2024/03/22 04:39:40;;;;;;;7.43;4.13;;;13.70;99.90;;;;;;5006669;28;20474;-47
2024/03/22 04:42:09;;;;;;;5.60;4.47;;;13.70;99.90;;;;;;4992939;28;20445;-47
2024/03/22 04:44:36;;;;;;;6.33;5.63;;;13.80;99.90;;;;;;5000260;28;20447;-47
2024/03/22 04:47:02;;;;;;;5.53;4.60;;;13.80;99.90;;;;;;5002427;28;20438;-47
2024/03/22 04:49:29;;;;;;;6.80;5.03;;;13.70;99.90;;;;;;4996506;28;20969;-47
2024/03/22 04:51:55;;;;;;;6.33;4.93;;;13.70;99.90;;;;;;5001030;28;20472;-48
2024/03/22 04:54:22;;;;;;;6.17;4.50;;;13.80;99.90;;;;;;4990970;28;21052;-47
2024/03/22 04:56:50;;;;;;;7.77;5.80;;;13.70;99.90;;;;;;4996768;28;20475;-47
2024/03/22 04:59:18;;;;;;;4.30;3.90;;;13.80;99.90;;;;;;4974279;28;20456;-47
2024/03/22 05:01:44;;;;;;;5.67;4.43;;;13.70;99.90;;;;;;4998567;28;20445;-47
2024/03/22 05:04:12;;;;;;;5.97;5.33;;;13.80;99.90;;;;;;4991175;28;20425;-47
2024/03/22 05:06:38;;;;;;;6.67;6.00;;;13.70;99.90;;;;;;4999868;28;20723;-47
2024/03/22 05:09:05;;;;;;;6.73;5.90;;;13.70;99.90;;;;;;5001679;28;20547;-48
2024/03/22 05:11:31;;;;;;;6.60;4.20;;;13.70;99.90;;;;;;4989806;28;20510;-47
2024/03/22 05:13:58;;;;;;;6.30;5.40;;;13.70;99.90;;;;;;4990654;28;20999;-47
2024/03/22 05:16:26;;;;;;;6.40;5.80;;;13.70;99.90;;;;;;4993888;28;20428;-48
2024/03/22 05:18:53;;;;;;;6.70;4.90;;;13.70;99.90;;;;;;4989676;28;20997;-48
2024/03/22 05:21:20;;;;;;;7.50;6.20;;;13.70;99.90;;;;;;4994794;28;20478;-48
2024/03/22 05:23:47;;;;;;;7.13;5.27;;;13.70;99.90;;;;;;5002686;28;20436;-49
2024/03/22 05:26:13;;;;;;;5.90;5.27;;;13.70;99.90;;;;;;4996631;28;20568;-47
2024/03/22 05:28:40;;;;;;;8.73;5.50;;;13.70;99.90;;;;;;4987999;28;20989;-47
2024/03/22 05:31:07;;;;;;;6.67;6.00;;;13.70;99.90;;;;;;4999976;28;20442;-47
2024/03/22 05:33:35;;;;;;;8.27;6.20;;;13.70;99.90;;;;;;4998399;28;20560;-47
2024/03/22 05:36:01;;;;;;;8.23;6.37;;;13.70;99.90;;;;;;5000621;28;20531;-47
2024/03/22 05:38:29;;;;;;;8.00;6.30;;;13.70;99.90;;;;;;4988197;28;20546;-48
2024/03/22 05:40:55;;;;;;;9.87;8.03;;;13.70;99.90;;;;;;4995247;28;20435;-48
2024/03/22 05:43:22;;;;;;;10.70;8.17;;;13.70;99.90;;;;;;5017727;28;20520;-46
2024/03/22 05:45:49;;;;;;;7.00;6.10;;;13.70;99.90;;;;;;4992392;28;20663;-47
2024/03/22 05:48:16;;;;;;;7.23;5.97;;;13.70;99.90;;;;;;4994968;28;20452;-47
2024/03/22 05:50:45;;;;;;;9.93;7.83;;;13.70;99.90;;;;;;4991305;28;20491;-48
2024/03/22 05:53:12;;;;;;;10.60;7.13;;;13.70;99.90;;;;;;4998712;28;20534;-48
2024/03/22 05:55:38;;;;;;;6.90;4.97;;;13.70;99.90;;;;;;5002513;28;20444;-49
2024/03/22 05:58:05;;;;;;;7.67;5.70;;;13.70;99.90;;;;;;4995104;28;20452;-48
2024/03/22 06:00:32;;;;;;;6.67;5.17;;;13.70;99.90;;;;;;5006099;28;20442;-48
2024/03/22 06:03:00;;;;;;;10.67;6.73;;;13.70;99.90;;;;;;5008005;28;20520;-48
2024/03/22 06:05:26;;;;;;;10.33;8.30;;;13.70;99.90;;;;;;5000671;28;20571;-50
2024/03/22 06:07:54;;;;;;;9.17;6.13;;;13.70;99.90;;;;;;5002884;28;20445;-46
2024/03/22 06:10:20;;;;;;;11.73;7.97;;;13.70;99.90;;;;;;4998463;28;20447;-47
2024/03/22 06:12:48;;;;;;;10.13;6.40;;;13.70;99.90;;;;;;4998745;28;21068;-48
2024/03/22 06:15:14;;;;;;;7.60;6.07;;;13.70;99.90;;;;;;4999871;28;20415;-48
2024/03/22 06:17:42;;;;;;;10.30;6.50;;;13.70;99.90;;;;;;4994052;28;20480;-48
2024/03/22 06:20:09;;;;;;;7.00;5.80;;;13.70;99.90;;;;;;4997796;28;20528;-48
2024/03/22 06:22:36;;;;;;;8.23;7.10;;;13.70;99.90;;;;;;4998386;28;20449;-46
2024/03/22 06:25:05;;;;;;;6.73;5.70;;;13.70;99.90;;;;;;5004278;28;20479;-47
2024/03/22 06:27:32;;;;;;;7.80;5.63;;;13.70;99.90;;;;;;4998533;28;20449;-48
2024/03/22 06:29:58;;;;;;;7.37;5.23;;;13.70;99.90;;;;;;4993445;28;20539;-47
2024/03/22 06:32:25;;;;;;;6.13;5.53;;;13.70;99.90;;;;;;5004063;28;20461;-47
2024/03/22 06:34:51;;;;;;;6.17;5.53;;;13.70;99.90;;;;;;5004636;28;20823;-48
2024/03/22 06:37:19;;;;;;;7.20;5.67;;;13.60;99.90;;;;;;4991755;28;20497;-48
2024/03/22 06:39:45;;;;;;;7.03;5.67;;;13.60;99.90;;;;;;4999569;28;20537;-48
2024/03/22 06:42:14;;;;;;;4.90;4.37;;;13.60;99.90;;;;;;5003853;28;20451;-47
2024/03/22 06:44:40;;;;;;;7.53;4.40;;;13.70;99.90;;;;;;4983273;28;20447;-47
2024/03/22 06:47:07;;;;;;;5.73;4.23;;;13.60;99.90;;;;;;5004003;28;20999;-47
2024/03/22 06:49:33;;;;;;;5.43;3.97;;;13.60;99.90;;;;;;5001972;28;20488;-48
2024/03/22 06:52:00;;;;;;;5.47;4.20;;;13.60;99.90;;;;;;5007026;28;20426;-48
2024/03/22 06:54:27;;;;;;;7.70;5.03;;;13.60;99.90;;;;;;4999416;28;20466;-50
2024/03/22 06:56:54;;;;;;;5.73;3.90;;;13.70;99.90;;;;;;4997434;28;20958;-48
2024/03/22 06:59:21;;;;;;;4.70;3.80;;;13.60;99.90;;;;;;4996286;28;20444;-48
2024/03/22 07:01:49;;;;;;;4.60;3.20;;;13.60;99.90;;;;;;5002924;28;21019;-49
2024/03/22 07:04:15;;;;;;;5.10;3.67;;;13.60;99.90;;;;;;4987424;28;21267;-50
2024/03/22 07:06:42;;;;;;;6.50;4.07;;;13.70;99.90;;;;;;4985090;28;20445;-50
2024/03/22 07:09:09;;;;;;;6.27;4.27;;;13.70;99.90;;;;;;5002134;28;20453;-48
2024/03/22 07:11:36;;;;;;;5.27;4.00;;;13.60;99.90;;;;;;4990788;28;20479;-51
2024/03/22 07:14:02;;;;;;;6.53;4.00;;;13.70;99.90;;;;;;4986906;28;20712;-47
2024/03/22 07:16:31;;;;;;;4.90;4.03;;;13.60;99.90;;;;;;4989463;28;20441;-47
2024/03/22 07:18:57;;;;;;;5.93;4.63;;;13.60;99.90;;;;;;4992179;28;20479;-47
2024/03/22 07:21:24;;;;;;;7.53;4.63;;;13.60;99.90;;;;;;4986191;28;20444;-48
2024/03/22 07:23:50;;;;;;;6.87;5.00;;;13.60;99.90;;;;;;4990672;28;20454;-49
2024/03/22 07:26:17;;;;;;;5.07;4.30;;;13.60;99.90;;;;;;4989592;28;20447;-51
2024/03/22 07:28:43;;;;;;;6.20;4.60;;;13.70;99.90;;;;;;4989008;28;20958;-47
2024/03/22 07:31:11;;;;;;;5.70;4.80;;;13.60;99.90;;;;;;4991705;28;21046;-48
2024/03/22 07:33:40;;;;;;;5.10;4.30;;;13.70;99.90;;;;;;4987559;28;20990;-47
2024/03/22 07:36:07;;;;;;;7.00;5.50;;;13.70;99.90;;;;;;4990282;28;20500;-50
2024/03/22 07:38:33;;;;;;;7.43;5.10;;;13.60;99.90;;;;;;4988450;28;20472;-50
2024/03/22 07:41:00;;;;;;;6.50;4.77;;;13.70;99.90;;;;;;4987857;28;21283;-50
2024/03/22 07:43:27;;;;;;;6.30;5.30;;;13.70;99.90;;;;;;4990687;28;20478;-47
2024/03/22 07:45:54;;;;;;;8.40;5.13;;;13.60;99.90;;;;;;4990935;28;20979;-48
2024/03/22 07:48:20;;;;;;;10.43;6.70;;;13.60;99.90;;;;;;4966901;28;20589;-48
2024/03/22 07:50:57;;;;;;;7.97;6.03;;;13.70;99.90;;;;;;4990512;28;20450;-48
2024/03/22 07:53:23;;;;;;;9.97;6.50;;;13.60;99.90;;;;;;4990438;28;20471;-48
2024/03/22 07:55:50;;;;;;;7.67;4.90;;;13.60;99.90;;;;;;4986257;28;20449;-50
2024/03/22 07:58:16;;;;;;;8.67;6.83;;;13.60;99.90;;;;;;4985465;28;20547;-48
2024/03/22 08:00:43;;;;;;;7.53;6.67;;;13.60;99.90;;;;;;4988394;28;20442;-47
2024/03/22 08:03:14;;;;;;;7.13;5.47;;;13.60;99.90;;;;;;4990844;28;20468;-48
2024/03/22 08:05:41;;;;;;;4.73;4.13;;;13.60;99.90;;;;;;4990292;28;21020;-49
2024/03/22 08:08:09;;;;;;;8.17;6.10;;;13.60;99.90;;;;;;4990402;28;20462;-50
2024/03/22 08:10:36;;;;;;;8.13;6.37;;;13.70;99.90;;;;;;4986301;28;20436;-51
2024/03/22 08:13:02;;;;;;;8.83;6.50;;;13.60;99.90;;;;;;4988432;28;20515;-47
2024/03/22 08:15:29;;;;;;;7.57;4.90;;;13.60;99.90;;;;;;4990176;28;20918;-51
2024/03/22 08:17:57;;;;;;;7.07;5.03;;;13.60;99.90;;;;;;4925315;28;1122221;-51
2024/03/22 08:20:24;;;;;;;6.23;4.57;;;13.60;99.90;;;;;;4988767;28;20294;-47
2024/03/22 08:22:50;;;;;;;9.90;6.10;;;13.60;99.90;;;;;;5007840;28;21009;-48
2024/03/22 08:25:20;;;;;;;6.13;4.83;;;13.70;99.90;;;;;;4996414;28;21847;-48
2024/03/22 08:27:47;;;;;;;5.30;4.20;;;13.60;99.90;;;;;;4992117;28;20547;-47
2024/03/22 08:30:14;;;;;;;5.20;4.70;;;13.60;99.90;;;;;;4989520;28;20475;-49
2024/03/22 08:32:41;;;;;;;5.93;4.80;;;13.60;99.90;;;;;;4989444;28;20501;-48
2024/03/22 08:35:08;;;;;;;7.60;5.60;;;13.60;99.90;;;;;;4993935;28;20499;-49
2024/03/22 08:37:34;;;;;;;9.20;5.40;;;13.60;99.90;;;;;;4991412;28;20443;-49
2024/03/22 08:40:04;;;;;;;5.80;4.47;;;13.60;99.90;;;;;;4989231;28;20440;-48
2024/03/22 08:42:32;;;;;;;5.77;4.20;;;13.60;99.90;;;;;;4986547;28;20558;-47
2024/03/22 08:44:59;;;;;;;5.67;4.10;;;13.70;99.90;;;;;;4990841;28;20439;-48
2024/03/22 08:47:25;;;;;;;4.50;4.10;;;13.70;99.90;;;;;;4990949;28;20452;-50
2024/03/22 08:49:53;;;;;;;6.00;4.40;;;13.60;99.90;;;;;;4989922;28;20556;-47
2024/03/22 08:52:19;;;;;;;5.13;4.10;;;13.60;99.90;;;;;;4986611;28;20456;-49
2024/03/22 08:54:46;;;;;;;6.10;5.17;;;13.70;99.90;;;;;;4992902;28;20440;-50
2024/03/22 08:57:13;;;;;;;7.17;5.13;;;13.60;99.90;;;;;;4990475;28;21012;-47
2024/03/22 08:59:42;;;;;;;7.93;6.20;;;13.60;99.90;;;;;;4990969;28;20476;-48
2024/03/22 09:02:08;;;;;;;4.90;4.17;;;13.60;99.90;;;;;;4983277;28;20525;-47
2024/03/22 09:04:35;;;;;;;5.70;4.50;;;13.70;99.90;;;;;;4991531;28;20807;-49
2024/03/22 09:07:01;;;;;;;4.70;3.43;;;13.70;99.90;;;;;;4988409;28;20485;-50
2024/03/22 09:09:28;;;;;;;4.17;3.27;;;13.70;99.90;;;;;;4991481;28;20529;-47
2024/03/22 09:11:54;;;;;;;5.20;4.00;;;13.70;99.90;;;;;;4986773;28;21150;-47
2024/03/22 09:14:21;;;;;;;6.33;4.67;;;13.70;99.90;;;;;;4997522;28;20504;-48
2024/03/22 09:16:49;;;;;;;3.70;3.03;;;13.70;99.90;;;;;;4988165;28;20539;-46
2024/03/22 09:19:16;;;;;;;3.90;3.60;;;13.70;99.90;;;;;;4988025;28;20473;-50
2024/03/22 09:21:42;;;;;;;3.67;3.20;;;13.70;99.90;;;;;;4986358;28;20456;-47
2024/03/22 09:24:10;;;;;;;4.23;3.30;;;13.70;99.90;;;;;;4989335;28;20425;-50
2024/03/22 09:26:36;;;;;;;4.33;3.20;;;13.70;99.90;;;;;;4987752;28;20804;-49
2024/03/22 09:29:03;;;;;;;5.70;3.33;;;13.70;99.90;;;;;;4989865;28;20571;-51
2024/03/22 09:31:30;;;;;;;5.03;3.60;;;13.70;99.90;;;;;;4990172;28;20465;-47
2024/03/22 09:33:59;;;;;;;5.13;3.40;;;13.70;99.90;;;;;;4996412;28;20555;-49
2024/03/22 09:36:25;;;;;;;5.50;4.17;;;13.70;99.90;;;;;;4991967;28;20479;-47
2024/03/22 09:38:52;;;;;;;4.57;3.33;;;13.70;99.90;;;;;;4990552;28;20486;-47
2024/03/22 09:41:23;;;;;;;3.40;3.07;;;13.70;99.90;;;;;;4986631;28;20893;-48
2024/03/22 09:43:52;;;;;;;4.40;3.07;;;13.70;99.90;;;;;;4995401;28;20441;-47
2024/03/22 09:46:20;;;;;;;3.73;3.43;;;13.70;99.90;;;;;;4993591;28;20487;-51
2024/03/22 09:48:49;;;;;;;4.67;3.90;;;13.70;99.90;;;;;;4989815;28;20475;-47
2024/03/22 09:51:17;;;;;;;6.00;3.40;;;13.70;99.90;;;;;;4988175;28;20531;-50
2024/03/22 09:53:45;;;;;;;3.93;3.30;;;13.70;99.90;;;;;;4990127;28;21077;-50
2024/03/22 09:56:14;;;;;;;3.37;2.87;;;13.70;99.90;;;;;;4987508;28;20454;-48
2024/03/22 09:58:42;;;;;;;4.57;3.20;;;13.70;99.90;;;;;;4990080;28;20921;-49
2024/03/22 10:01:08;;;;;;;3.20;2.90;;;13.70;99.90;;;;;;4994146;28;20438;-50
2024/03/22 10:03:36;;;;;;;4.30;3.47;;;13.70;99.90;;;;;;4993372;28;20483;-46
2024/03/22 10:06:06;;;;;;;4.00;3.60;;;13.70;99.90;;;;;;4992471;28;20445;-51
2024/03/22 10:08:34;;;;;;;5.07;3.60;;;13.70;99.90;;;;;;4995003;28;21011;-47
2024/03/22 10:11:03;;;;;;;6.17;3.90;;;13.70;99.90;;;;;;4990181;28;20463;-48
2024/03/22 10:13:30;;;;;;;3.93;2.90;;;13.70;99.90;;;;;;4983398;28;21004;-48
2024/03/22 10:15:57;;;;;;;4.90;3.77;;;13.70;99.90;;;;;;4993353;28;20447;-50
2024/03/22 10:18:24;;;;;;;3.47;2.90;;;13.70;99.90;;;;;;4990611;28;20467;-48
2024/03/22 10:20:59;;;;;;;3.37;2.80;;;13.70;99.90;;;;;;4992401;28;20968;-48
2024/03/22 10:23:27;;;;;;;4.20;3.20;;;13.70;99.90;;;;;;4993637;28;20447;-47
2024/03/22 10:25:55;;;;;;;3.43;2.63;;;13.70;99.90;;;;;;4990165;28;20448;-48
2024/03/22 10:28:22;;;;;;;2.90;2.60;;;13.70;99.90;;;;;;4990901;28;20858;-48
2024/03/22 10:30:50;;;;;;;3.97;2.93;;;13.70;99.90;;;;;;4994431;28;20453;-46
2024/03/22 10:33:19;;;;;;;2.90;2.60;;;13.70;99.90;;;;;;5003086;28;20517;-47
2024/03/22 10:35:46;;;;;;;3.10;2.50;;;13.70;99.90;;;;;;5007468;28;20536;-48
2024/03/22 10:38:14;;;;;;;4.03;3.47;;;13.70;99.90;;;;;;4990812;28;20995;-47
2024/03/22 10:40:45;;;;;;;6.00;4.20;;;13.70;99.90;;;;;;4989826;28;20454;-51
2024/03/22 10:43:13;;;;;;;4.23;3.37;;;13.70;99.90;;;;;;4986363;28;21028;-47
2024/03/22 10:45:40;;;;;;;4.30;3.17;;;13.70;99.90;;;;;;4992760;28;20435;-47
2024/03/22 10:48:10;;;;;;;3.60;3.17;;;13.70;99.90;;;;;;4992831;28;21392;-49
2024/03/22 10:50:39;;;;;;;5.53;3.60;;;13.70;99.90;;;;;;4993056;28;20451;-48
2024/03/22 10:53:10;;;;;;;4.43;3.57;;;13.70;99.90;;;;;;5000877;28;20468;-47
2024/03/22 10:55:38;;;;;;;3.60;2.80;;;13.70;99.90;;;;;;5001688;28;20518;-48
2024/03/22 10:58:06;;;;;;;4.20;3.40;;;13.70;99.90;;;;;;4997911;28;20623;-48
2024/03/22 11:00:34;;;;;;;5.63;4.60;;;13.70;99.90;;;;;;4998667;28;20553;-48
2024/03/22 11:03:03;;;;;;;4.37;3.53;;;13.80;99.90;;;;;;5001620;28;20436;-51
2024/03/22 11:05:30;;;;;;;4.57;3.07;;;13.70;99.90;;;;;;4994035;28;20949;-50
2024/03/22 11:08:00;;;;;;;4.80;3.50;;;13.70;99.90;;;;;;4999812;28;20455;-51
2024/03/22 11:10:30;;;;;;;4.40;3.30;;;13.70;99.90;;;;;;4991687;28;20498;-48
2024/03/22 11:13:02;;;;;;;3.90;3.50;;;13.80;99.90;;;;;;4973303;28;20537;-51
2024/03/22 11:15:28;;;;;;;4.97;3.07;;;13.70;99.90;;;;;;4980997;28;20448;-48
2024/03/22 11:17:57;;;;;;;4.83;4.13;;;13.70;99.90;;;;;;4990325;28;20481;-49
2024/03/22 11:20:23;;;;;;;5.17;3.43;;;13.70;99.90;;;;;;4986682;28;20449;-47
2024/03/22 11:22:52;;;;;;;5.43;4.20;;;13.70;99.90;;;;;;4990705;28;20443;-47
2024/03/22 11:25:19;;;;;;;5.10;3.40;;;13.70;99.90;;;;;;4988792;28;20498;-48
2024/03/22 11:27:46;;;;;;;4.20;3.10;;;13.70;99.90;;;;;;4987946;28;20440;-48
2024/03/22 11:30:12;;;;;;;4.40;4.00;;;13.70;99.90;;;;;;4989555;28;20876;-48
2024/03/22 11:32:44;;;;;;;5.20;4.03;;;13.70;99.90;;;;;;4986590;28;20452;-48
2024/03/22 11:35:13;;;;;;;4.60;3.47;;;13.70;99.90;;;;;;4992087;28;20594;-51
2024/03/22 11:37:40;;;;;;;5.10;2.73;;;13.70;99.90;;;;;;4991089;28;20539;-49
2024/03/22 11:40:10;;;;;;;5.10;3.43;;;13.70;99.90;;;;;;4989068;28;20455;-50
2024/03/22 11:42:38;;;;;;;4.53;3.37;;;13.70;99.90;;;;;;4989372;28;20440;-49
2024/03/22 11:45:06;;;;;;;4.67;4.07;;;13.70;99.90;;;;;;4985205;28;20502;-49
2024/03/22 11:47:34;;;;;;;5.03;3.60;;;13.70;99.90;;;;;;4991495;28;20531;-49
2024/03/22 11:50:02;;;;;;;4.73;4.20;;;13.70;99.90;;;;;;4990159;28;20997;-49
2024/03/22 11:52:31;;;;;;;4.97;4.17;;;13.80;99.90;;;;;;4990053;28;20442;-50
2024/03/22 11:54:57;;;;;;;6.53;5.00;;;13.70;99.90;;;;;;4988893;28;20548;-51
2024/03/22 11:57:26;;;;;;;5.60;3.60;;;13.70;99.90;;;;;;4994015;28;20440;-49
2024/03/22 11:59:58;;;;;;;4.33;3.43;;;13.70;99.90;;;;;;4990995;28;20521;-48
2024/03/22 12:02:25;;;;;;;4.90;3.53;;;13.70;99.90;;;;;;4998942;28;20447;-49
2024/03/22 12:04:53;;;;;;;10.68;7.55;;;13.70;99.90;;;;;;4997649;28;20522;-47
2024/03/22 12:07:19;;;;;;;6.50;5.40;;;13.70;99.90;;;;;;4999291;28;20292;-47
2024/03/22 12:09:48;;;;;;;7.23;6.27;;;13.70;99.90;;;;;;4990938;28;20469;-49
2024/03/22 12:12:14;;;;;;;6.20;5.30;;;13.70;99.90;;;;;;4988296;28;20538;-47
2024/03/22 12:14:41;;;;;;;6.07;5.27;;;13.80;99.90;;;;;;4991386;28;20973;-51
2024/03/22 12:17:08;;;;;;;7.37;5.53;;;13.70;99.90;;;;;;4990826;28;20443;-48
2024/03/22 12:19:35;;;;;;;6.20;5.60;;;13.70;99.90;;;;;;4990872;28;20464;-49
2024/03/22 12:22:02;;;;;;;5.50;4.70;;;13.70;99.90;;;;;;4989400;28;20457;-47
2024/03/22 12:24:29;;;;;;;7.70;5.07;;;13.70;99.90;;;;;;4991307;28;20468;-48
2024/03/22 12:26:57;;;;;;;5.43;4.50;;;13.70;99.90;;;;;;4989715;28;20460;-52
2024/03/22 12:29:24;;;;;;;5.50;4.30;;;13.70;99.90;;;;;;4988716;28;20981;-49
2024/03/22 12:31:51;;;;;;;7.00;5.27;;;13.70;99.90;;;;;;4989088;28;20433;-48
2024/03/22 12:34:19;;;;;;;7.70;5.53;;;13.70;99.90;;;;;;4990466;28;20975;-50
2024/03/22 12:36:45;;;;;;;9.40;6.70;;;13.70;99.90;;;;;;4989923;28;20440;-49
2024/03/22 12:39:12;;;;;;;8.53;5.20;;;13.70;99.90;;;;;;4994071;28;20832;-48
2024/03/22 12:41:38;;;;;;;9.47;7.23;;;13.70;99.90;;;;;;4996446;28;20537;-48
2024/03/22 12:44:07;;;;;;;6.93;5.43;;;13.70;99.90;;;;;;4993086;28;20439;-47